Ringling, MT (59642)

01:01 AM MDT on Oktober 25, 2014 (GMT -0600)
Gallatin | Change Station
CLOSE
Current Station
Airport
Location: Bozeman,
Elevation: 4475 ft
Nearby Weather Stations

Elev 4475 ft 45.79 °N, 111.16 °W | Updated 5 minutes ago

Mendung Sebagian
Mendung Sebagian
36 °F
Feels Like 31 °F
N
6
Angin Variable Angin from Dari Selatan ke Tenggara

Siang Ini
High -- | Low -- °F
--% Chance of Precip.
Yesterday
High -- | Low -- °F
Precip. -- Inch
7:54 AM 6:19 PM
Bulan Baru, 2% visible
Tekanan 30.13 Inch
Jarak Pandang 10.0 Mil
Awan Cerah
Angin Dingin 31 °F
Titik Embun 34 °F
Kelembaban 93%
Rainfall 0.00 Inch
Snow Depth Not available.
UV 0 out of 12
Pollen 1.30 out of 12
Air Quality Not available.
Flu Activity No Activity
METAR KBZN 250656Z AUTO 16005KT 10SM CLR 02/01 A3011 RMK AO2 SLP202 T00220011 401390011

More Conditions Fewer Conditions

Tekanan 30.13 Inch
Jarak Pandang 10.0 Mil
Awan Cerah
Angin Dingin 31 °F
Titik Embun 34 °F
Kelembaban 93%
Rainfall 0.00 Inch
Snow Depth Not available.
UV 0 out of 12
Pollen 1.30 out of 12
Air Quality Not available.
Flu Activity No Activity
METAR KBZN 250656Z AUTO 16005KT 10SM CLR 02/01 A3011 RMK AO2 SLP202 T00220011 401390011

More Conditions Fewer Conditions

10-Day Weather Forecast

Almanac

Astronomi

Oct. 25, 2014 Rise Set
Actual Time 7:54 AM MDT 6:19 PM MDT
Civil Twilight 7:23 AM MDT 6:50 PM MDT
Nautical Twilight 6:48 AM MDT 7:25 PM MDT
Astronomical Twilight 6:13 AM MDT 8:00 PM MDT
Moon 9:41 AM MDT 7:40 PM MDT
Length Of Visible Light 11h 26m
Lama Satu Hari
10h 24m
Tomorrow will be 3m 3s shorter.
Bulan Baru, 2% of the Moon is Illuminated
Siang Ini
Bulan Baru
Oct 30
Triwulan Pertama
Nov 6
Bulan Purnama
Nov 14
Kuartil Terakhir
Nov 22
New

Today's Extremes

State Highs State Lows

Community

WunderPhotos

Upload Photos

1,764,789 photos uploaded!

Nearby

Snow Depth

Station Depth Elevation
Porcupine 0 in 6500 ft
South Fork Shields 1 in 8100 ft
Pickfoot Creek 0 in 6650 ft
Boulder Mountain 0 in 7950 ft
Sacajawea 1 in 6550 ft

Earthquake Activity

City Distance Mag. Time & Date
No recent earthquake activity has been reported nearby.
Minimum magnitude displayed is 2.5.

Coastal Water Temperatures

Lokasi Temperatur
No Stations Reporting

Nearby Weather Stations